Time;durP1;ratioP1;P1;durP2;ratioP2;P2;SDS_P1;SDS_P2;PMS_P1;PMS_P2;Temp;Humidity;BMP_temperature;BMP_pressure;BME280_temperature;BME280_humidity;BME280_pressure;Samples;Min_cycle;Max_cycle;Signal;HPM_P1;HPM_P2
2022/06/21 00:02:12;;;;;;;;;6.67;6.00;;;;;20.97;49.93;100905.16;4993532;27;45553;-74
2022/06/21 00:04:38;;;;;;;;;11.33;10.00;;;;;20.58;49.92;100828.56;4975313;28;47740;-74
2022/06/21 00:07:06;;;;;;;;;10.33;9.00;;;;;20.72;49.84;100849.34;4993252;27;45437;-76
2022/06/21 00:09:32;;;;;;;;;9.67;9.33;;;;;20.53;50.23;100818.06;4994446;27;45512;-78
2022/06/21 00:11:58;;;;;;;;;11.00;11.00;;;;;20.85;50.04;100874.53;4989575;27;45480;-77
2022/06/21 00:14:24;;;;;;;;;9.00;9.00;;;;;20.95;50.20;100904.34;5043151;27;45573;-77
2022/06/21 00:16:49;;;;;;;;;14.00;11.00;;;;;20.85;50.00;100874.53;5007288;27;45499;-78
2022/06/21 00:19:24;;;;;;;;;10.33;10.33;;;;;20.92;50.15;100883.16;4976331;28;45920;-77
2022/06/21 00:21:50;;;;;;;;;12.00;12.00;;;;;20.38;50.36;100805.31;4994350;27;45500;-77
2022/06/21 00:24:16;;;;;;;;;10.67;10.00;;;;;20.86;50.39;100905.56;4993642;27;45398;-78
2022/06/21 00:26:43;;;;;;;;;9.33;8.67;;;;;20.22;50.26;100780.25;4997119;27;45432;-76
2022/06/21 00:29:09;;;;;;;;;11.00;9.33;;;;;20.59;50.06;100832.94;5062410;27;45919;-77
2022/06/21 00:31:37;;;;;;;;;13.00;11.00;;;;;20.21;50.01;100784.69;4995023;27;45818;-77
2022/06/21 00:34:12;;;;;;;;;9.67;9.67;;;;;20.57;50.34;100850.75;4997709;27;45444;-77
2022/06/21 00:36:38;;;;;;;;;9.00;9.00;;;;;20.29;50.59;100811.88;4995388;27;45647;-77
2022/06/21 00:39:05;;;;;;;;;9.67;9.00;;;;;20.87;50.40;100880.69;4996884;27;45335;-79
2022/06/21 00:41:42;;;;;;;;;10.00;9.00;;;;;20.70;50.54;100862.69;4989383;27;45302;-78
2022/06/21 00:44:14;;;;;;;;;13.67;13.00;;;;;20.54;50.27;100841.06;4990254;27;45345;-77
2022/06/21 00:46:49;;;;;;;;;11.33;11.33;;;;;20.33;50.26;100817.94;4990702;27;45624;-76
2022/06/21 00:49:25;;;;;;;;;10.00;9.00;;;;;20.81;50.31;100880.03;4975010;27;45409;-77
2022/06/21 00:52:02;;;;;;;;;8.33;8.00;;;;;20.72;50.27;100865.31;4977661;27;45410;-77
2022/06/21 00:54:44;;;;;;;;;10.33;10.00;;;;;20.91;50.29;100886.78;4987811;27;46163;-78
2022/06/21 00:57:18;;;;;;;;;8.00;8.00;;;;;20.49;50.31;100823.56;4980317;27;45481;-78
2022/06/21 00:59:46;;;;;;;;;10.33;10.33;;;;;20.98;50.04;100898.06;4992937;27;45688;-78
2022/06/21 01:02:20;;;;;;;;;12.33;11.00;;;;;20.21;50.09;100784.69;4975427;27;45574;-79
2022/06/21 01:04:52;;;;;;;;;9.33;9.33;;;;;20.63;49.87;100839.91;4990451;27;45567;-76
2022/06/21 01:07:19;;;;;;;;;11.33;11.00;;;;;21.00;49.49;100902.38;4984777;27;45472;-78
2022/06/21 01:09:51;;;;;;;;;11.33;11.33;;;;;20.98;49.65;100906.91;4992406;27;45465;-78
2022/06/21 01:12:32;;;;;;;;;11.67;11.67;;;;;20.86;49.85;100876.28;4993116;27;45249;-78
2022/06/21 01:15:07;;;;;;;;;14.67;13.33;;;;;20.83;49.92;100891.50;4993174;27;45585;-78
2022/06/21 01:17:34;;;;;;;;;13.33;13.33;;;;;20.77;50.03;100910.38;4994702;27;45596;-78
2022/06/21 01:20:12;;;;;;;;;15.00;13.67;;;;;19.95;49.69;100784.78;4971708;28;45421;-76
2022/06/21 01:22:59;;;;;;;;;15.33;15.33;;;;;20.53;49.81;100876.59;4972963;28;45350;-77
2022/06/21 01:26:05;;;;;;;;;15.00;13.00;;;;;20.54;50.40;100912.06;4959676;28;47877;-78
2022/06/21 01:28:32;;;;;;;;;14.00;12.50;;;;;20.19;50.38;100870.75;5011324;27;46144;-78
2022/06/21 01:30:58;;;;;;;;;11.67;11.33;;;;;20.01;50.62;100827.09;4996958;27;45320;-79
2022/06/21 01:33:31;;;;;;;;;9.67;8.00;;;;;20.48;50.67;100901.66;4998070;27;45433;-78
2022/06/21 01:36:00;;;;;;;;;12.33;10.33;;;;;19.81;50.49;100778.19;4995590;27;46491;-78
2022/06/21 01:38:49;;;;;;;;;13.00;10.00;;;;;20.65;50.25;100909.91;4998801;27;45426;-78
2022/06/21 01:41:20;;;;;;;;;11.00;11.00;;;;;20.16;50.10;100842.50;4978989;27;45631;-80
2022/06/21 01:43:49;;;;;;;;;12.33;12.33;;;;;20.62;50.16;100920.69;4993129;27;45373;-78
2022/06/21 01:46:19;;;;;;;;;11.33;11.33;;;;;20.20;50.37;100854.75;4993123;27;45461;-79
2022/06/21 01:48:51;;;;;;;;;9.33;9.33;;;;;20.60;50.07;100922.53;4994489;27;45469;-77
2022/06/21 01:51:40;;;;;;;;;9.33;9.33;;;;;20.25;50.54;100892.69;4993065;27;45568;-77
2022/06/21 01:54:11;;;;;;;;;11.00;11.00;;;;;19.98;50.48;100859.09;5069368;27;45343;-78
2022/06/21 01:56:39;;;;;;;;;11.67;11.33;;;;;19.96;50.19;100880.44;4988482;27;46238;-79
2022/06/21 01:59:38;;;;;;;;;11.00;11.00;;;;;20.27;50.61;100943.19;4989253;27;45507;-77
2022/06/21 02:02:37;;;;;;;;;12.67;12.67;;;;;20.38;50.87;101010.16;4968710;28;45483;-77
2022/06/21 02:05:14;;;;;;;;;13.33;12.67;;;;;19.99;50.96;100952.09;4986034;27;45589;-78
2022/06/21 02:07:58;;;;;;;;;10.00;10.00;;;;;20.18;51.01;100956.81;4995886;27;46198;-78
2022/06/21 02:10:36;;;;;;;;;10.00;10.00;;;;;20.45;50.82;100994.84;4996741;27;45347;-79
2022/06/21 02:13:24;;;;;;;;;13.00;11.00;;;;;20.10;50.84;100946.44;4993382;27;45318;-79
2022/06/21 02:16:09;;;;;;;;;11.00;10.33;;;;;20.47;50.69;100985.03;4993018;27;45564;-77
2022/06/21 02:18:41;;;;;;;;;12.67;12.67;;;;;19.91;50.64;100899.19;4990685;28;47739;-79
2022/06/21 02:21:19;;;;;;;;;10.00;10.00;;;;;19.73;50.69;100848.47;4992238;27;45516;-79
2022/06/21 02:23:51;;;;;;;;;10.00;10.00;;;;;20.19;50.88;100938.09;4992878;27;45620;-79
2022/06/21 02:26:17;;;;;;;;;14.00;13.00;;;;;19.84;51.04;100864.91;4994983;27;45283;-80
2022/06/21 02:28:43;;;;;;;;;10.33;10.33;;;;;20.40;50.93;100936.50;5037493;27;45562;-77
2022/06/21 02:31:09;;;;;;;;;11.00;10.00;;;;;20.15;51.32;100890.44;5020656;27;45380;-79
2022/06/21 02:33:37;;;;;;;;;10.00;8.67;;;;;19.88;51.22;100840.84;4992778;28;45459;-78
2022/06/21 02:36:03;;;;;;;;;14.00;13.00;;;;;20.41;50.99;100905.47;4995823;27;45370;-77
2022/06/21 02:38:36;;;;;;;;;13.33;12.33;;;;;20.01;51.12;100849.25;4995282;27;45604;-76
2022/06/21 02:41:16;;;;;;;;;12.67;12.67;;;;;19.66;50.77;100791.97;4994270;27;45441;-77
2022/06/21 02:43:45;;;;;;;;;13.33;13.33;;;;;20.32;51.25;100904.84;4992021;27;45448;-77
2022/06/21 02:46:16;;;;;;;;;11.00;11.00;;;;;19.91;51.57;100848.69;4994700;27;45666;-78
2022/06/21 02:48:54;;;;;;;;;13.33;11.67;;;;;20.29;51.73;100901.44;4994179;27;45370;-78
2022/06/21 02:51:30;;;;;;;;;12.67;11.67;;;;;20.31;51.86;100897.81;4993745;27;45525;-77
2022/06/21 02:54:32;;;;;;;;;17.67;15.00;;;;;20.31;52.45;100900.47;4994400;27;45437;-78
2022/06/21 02:57:24;;;;;;;;;11.67;11.67;;;;;19.81;52.43;100834.00;5003397;27;45767;-78
2022/06/21 02:59:52;;;;;;;;;15.33;15.00;;;;;19.93;52.28;100859.25;4982913;27;45412;-76
2022/06/21 03:02:22;;;;;;;;;13.00;12.33;;;;;19.67;52.96;100834.44;4977231;27;45705;-76
2022/06/21 03:05:03;;;;;;;;;15.00;12.00;;;;;19.59;53.65;100824.97;4995211;27;45494;-76
2022/06/21 03:07:34;;;;;;;;;13.00;13.00;;;;;19.93;53.62;100880.53;4995155;27;45428;-77
2022/06/21 03:10:01;;;;;;;;;12.00;10.67;;;;;19.58;53.51;100812.63;4977890;28;46439;-77
2022/06/21 03:12:32;;;;;;;;;11.67;11.67;;;;;19.94;54.05;100861.00;4996275;27;45464;-79
2022/06/21 03:15:05;;;;;;;;;10.33;10.33;;;;;19.17;54.02;100720.16;4988533;27;45332;-78
2022/06/21 03:17:44;;;;;;;;;15.00;13.33;;;;;19.75;54.03;100812.94;4971144;27;45510;-77
2022/06/21 03:20:14;;;;;;;;;13.67;12.33;;;;;20.02;53.30;100852.75;4961362;28;46720;-76
2022/06/21 03:22:41;;;;;;;;;11.33;11.33;;;;;19.74;53.88;100815.63;4988735;27;45494;-78
2022/06/21 03:25:15;;;;;;;;;12.33;12.00;;;;;19.71;53.49;100813.97;5029193;27;45642;-77
2022/06/21 03:27:55;;;;;;;;;13.67;12.33;;;;;19.71;54.26;100819.28;5098193;27;45338;-78
2022/06/21 03:30:25;;;;;;;;;12.33;12.33;;;;;19.80;54.25;100818.09;4981969;27;45414;-77
2022/06/21 03:32:54;;;;;;;;;16.00;14.00;;;;;19.17;53.95;100716.63;4993884;27;45442;-77
2022/06/21 03:35:21;;;;;;;;;12.67;11.67;;;;;19.69;53.96;100807.81;4993675;27;45503;-78
2022/06/21 03:37:47;;;;;;;;;10.00;10.00;;;;;19.44;54.10;100755.53;4994411;27;45484;-79
2022/06/21 03:43:37;;;;;;;;;10.33;10.33;;;;;19.16;54.38;100722.88;5066330;27;45625;-78
2022/06/21 03:46:13;;;;;;;;;17.67;15.00;;;;;18.81;54.78;100679.78;5054498;27;45391;-78
2022/06/21 03:48:46;;;;;;;;;14.67;14.67;;;;;19.28;54.58;100771.09;4982793;27;45539;-78
2022/06/21 03:51:16;;;;;;;;;15.00;15.00;;;;;19.15;55.54;100758.28;4992325;27;45543;-78
2022/06/21 03:54:14;;;;;;;;;17.00;14.67;;;;;19.06;55.40;100738.22;4993383;27;45848;-77
2022/06/21 03:56:49;;;;;;;;;16.00;12.67;;;;;19.03;56.49;100744.50;4993869;27;45574;-77
2022/06/21 03:59:22;;;;;;;;;16.00;16.00;;;;;18.96;56.44;100732.34;4993923;27;45883;-77
2022/06/21 04:02:09;;;;;;;;;15.33;15.00;;;;;18.96;56.73;100732.34;4993489;27;46227;-78
2022/06/21 04:05:07;;;;;;;;;14.67;13.33;;;;;18.87;57.08;100719.38;5025785;27;45294;-77
2022/06/21 04:07:41;;;;;;;;;13.33;12.00;;;;;19.05;56.84;100726.75;5014440;27;45588;-76
2022/06/21 04:10:53;;;;;;;;;14.33;13.00;;;;;19.11;56.40;100722.16;5051443;27;45417;-78
2022/06/21 04:13:24;;;;;;;;;16.00;16.00;;;;;19.00;56.96;100702.13;5015121;28;46642;-79
2022/06/21 04:16:07;;;;;;;;;19.67;15.00;;;;;19.12;56.64;100715.91;5014358;28;45515;-76
2022/06/21 04:18:55;;;;;;;;;13.00;12.67;;;;;18.72;57.58;100646.44;4997932;27;45612;-79
2022/06/21 04:21:55;;;;;;;;;13.33;13.00;;;;;19.19;57.10;100705.03;4981827;27;45429;-76
2022/06/21 04:24:38;;;;;;;;;12.67;12.67;;;;;18.51;57.52;100610.88;4997605;27;45508;-78
2022/06/21 04:27:29;;;;;;;;;14.67;14.33;;;;;18.99;57.83;100688.94;4999054;27;45318;-77
2022/06/21 04:30:02;;;;;;;;;12.33;12.33;;;;;18.95;59.10;100695.25;4993383;27;45504;-78
2022/06/21 04:32:36;;;;;;;;;15.33;13.33;;;;;18.46;58.67;100610.16;4972978;28;45501;-78
2022/06/21 04:35:01;;;;;;;;;13.67;12.67;;;;;18.94;59.08;100682.91;4957307;27;47903;-78
2022/06/21 04:37:53;;;;;;;;;11.67;9.00;;;;;18.86;58.74;100656.59;4989620;27;45351;-77
2022/06/21 04:40:38;;;;;;;;;18.00;13.67;;;;;19.10;59.45;100672.63;4986040;27;45614;-77
2022/06/21 04:43:14;;;;;;;;;12.00;10.67;;;;;19.15;58.83;100671.56;4973509;28;45382;-77
2022/06/21 04:45:52;;;;;;;;;11.00;11.00;;;;;19.22;58.31;100670.44;4989371;27;45498;-76
2022/06/21 04:48:43;;;;;;;;;12.00;11.00;;;;;19.24;57.92;100673.00;4995179;27;45413;-78
2022/06/21 04:51:14;;;;;;;;;15.67;15.67;;;;;19.16;58.67;100678.59;4978398;27;45367;-77
2022/06/21 04:53:53;;;;;;;;;17.67;13.33;;;;;19.05;58.87;100680.72;4996636;27;45524;-74
2022/06/21 04:56:44;;;;;;;;;12.33;12.33;;;;;19.08;58.43;100678.00;4989347;27;45536;-77
2022/06/21 04:59:34;;;;;;;;;16.67;16.67;;;;;19.04;58.45;100666.59;4991252;27;45520;-77
2022/06/21 05:02:02;;;;;;;;;15.33;13.00;;;;;18.55;58.86;100603.66;4992682;27;45531;-78
2022/06/21 05:04:39;;;;;;;;;13.67;13.00;;;;;18.97;59.52;100686.31;5017795;27;45530;-78
2022/06/21 05:07:18;;;;;;;;;16.00;16.00;;;;;18.64;58.50;100641.38;5032067;27;45488;-78
2022/06/21 05:09:46;;;;;;;;;15.33;15.33;;;;;18.91;58.44;100698.91;4992134;27;45638;-80
2022/06/21 05:12:24;;;;;;;;;13.67;13.00;;;;;18.67;58.82;100680.19;4993490;27;45355;-75
2022/06/21 05:14:56;;;;;;;;;11.67;10.33;;;;;18.62;58.88;100679.47;5023807;27;45571;-77
2022/06/21 05:17:23;;;;;;;;;14.00;14.00;;;;;18.94;58.65;100720.06;5028319;27;45586;-77
2022/06/21 05:19:56;;;;;;;;;16.67;11.33;;;;;19.08;58.89;100725.78;4991451;27;46152;-76
2022/06/21 05:22:36;;;;;;;;;13.00;12.00;;;;;19.21;58.32;100728.88;4974149;28;45504;-75
2022/06/21 05:25:15;;;;;;;;;13.00;11.33;;;;;19.15;57.95;100710.50;4996432;27;45377;-76
2022/06/21 05:28:11;;;;;;;;;13.00;13.00;;;;;19.53;58.15;100741.06;5054765;27;46881;-77
2022/06/21 05:30:56;;;;;;;;;13.33;12.67;;;;;19.69;57.43;100738.75;4982086;27;45398;-79
2022/06/21 05:33:28;;;;;;;;;15.00;14.33;;;;;19.81;57.49;100721.47;4991585;27;46653;-77
2022/06/21 05:35:54;;;;;;;;;12.67;12.67;;;;;19.45;56.38;100651.00;4990960;28;45565;-78
2022/06/21 05:38:27;;;;;;;;;18.67;14.67;;;;;19.81;56.71;100717.06;4991099;28;46107;-76
2022/06/21 05:41:00;;;;;;;;;11.00;11.00;;;;;19.85;56.71;100723.97;4987879;27;45299;-77
2022/06/21 05:43:30;;;;;;;;;15.67;15.00;;;;;19.66;56.13;100673.25;4986762;27;46434;-76
2022/06/21 05:46:07;;;;;;;;;11.67;9.33;;;;;20.11;56.03;100719.50;4990123;27;45611;-74
2022/06/21 05:48:36;;;;;;;;;15.00;13.33;;;;;20.09;55.26;100692.09;4976081;27;46424;-76
2022/06/21 05:51:06;;;;;;;;;12.67;11.33;;;;;20.07;54.44;100667.34;4976438;27;45808;-77
2022/06/21 05:53:39;;;;;;;;;16.00;16.00;;;;;19.98;53.93;100644.66;4988002;27;45698;-78
2022/06/21 05:56:09;;;;;;;;;14.33;13.33;;;;;20.19;54.54;100664.19;4989504;27;45889;-76
2022/06/21 05:58:43;;;;;;;;;14.00;13.00;;;;;20.57;54.34;100720.38;4984756;27;45574;-77
2022/06/21 06:01:15;;;;;;;;;12.33;11.33;;;;;20.79;53.70;100719.56;4990252;27;45506;-77
2022/06/21 06:04:24;;;;;;;;;17.33;13.33;;;;;20.90;53.47;100730.59;4978005;27;46209;-75
2022/06/21 06:07:01;;;;;;;;;14.33;11.33;;;;;20.71;53.19;100690.56;4987822;27;45444;-76
2022/06/21 06:09:42;;;;;;;;;16.33;13.67;;;;;20.93;53.30;100711.88;4988316;27;45751;-76
2022/06/21 06:12:10;;;;;;;;;14.00;11.00;;;;;20.98;53.05;100720.53;4974748;28;45362;-76
2022/06/21 06:14:46;;;;;;;;;17.00;14.33;;;;;21.02;52.16;100729.22;4991379;27;45449;-77
2022/06/21 06:17:26;;;;;;;;;14.67;14.67;;;;;21.06;52.24;100714.88;4984561;27;45583;-77
2022/06/21 06:20:04;;;;;;;;;15.33;13.67;;;;;21.16;52.37;100702.88;4982484;28;46251;-77
2022/06/21 06:22:40;;;;;;;;;13.33;13.00;;;;;21.25;52.18;100705.16;4972112;27;45899;-76
2022/06/21 06:25:32;;;;;;;;;15.33;14.67;;;;;21.27;51.62;100697.97;4961100;27;45338;-76
2022/06/21 06:28:09;;;;;;;;;15.00;12.67;;;;;21.22;51.67;100673.34;4991669;27;45651;-75
2022/06/21 06:30:46;;;;;;;;;13.33;11.67;;;;;21.38;51.57;100686.88;4967250;28;45409;-75
2022/06/21 06:33:18;;;;;;;;;15.33;15.33;;;;;21.25;51.79;100683.84;4989642;27;45509;-75
2022/06/21 06:35:47;;;;;;;;;12.67;11.33;;;;;21.26;51.58;100682.94;4992160;27;45394;-74
2022/06/21 06:38:16;;;;;;;;;11.33;11.33;;;;;21.09;51.32;100633.03;4992869;27;45336;-75
2022/06/21 06:40:50;;;;;;;;;13.00;13.00;;;;;21.60;50.82;100716.97;4975277;28;47205;-74
2022/06/21 06:43:26;;;;;;;;;16.33;14.33;;;;;21.26;50.46;100682.94;4969349;27;45511;-75
2022/06/21 06:45:56;;;;;;;;;17.67;14.00;;;;;20.88;50.89;100623.31;4972993;27;45312;-74
2022/06/21 06:48:26;;;;;;;;;16.33;16.33;;;;;21.44;51.05;100734.56;4973860;27;45326;-76
2022/06/21 06:51:26;;;;;;;;;16.33;16.00;;;;;21.29;51.31;100730.75;4972311;27;46291;-73
2022/06/21 06:53:54;;;;;;;;;15.33;13.67;;;;;20.98;51.31;100685.06;4970991;27;45544;-73
2022/06/21 06:56:31;;;;;;;;;11.67;11.67;;;;;21.25;51.82;100699.84;4976289;27;45407;-73
2022/06/21 06:59:10;;;;;;;;;14.67;12.00;;;;;21.06;51.51;100664.28;4972961;27;45350;-74
2022/06/21 07:01:47;;;;;;;;;12.33;12.00;;;;;21.42;51.59;100723.13;4994245;27;46247;-76
2022/06/21 07:04:18;;;;;;;;;15.67;15.67;;;;;21.59;51.18;100739.25;4994513;27;45339;-74
2022/06/21 07:06:56;;;;;;;;;16.00;15.67;;;;;21.55;51.47;100747.44;4994886;27;45707;-75
2022/06/21 07:09:47;;;;;;;;;16.33;15.67;;;;;21.42;51.70;100756.88;4995803;27;45468;-74
2022/06/21 07:12:18;;;;;;;;;14.67;14.67;;;;;21.42;52.11;100760.41;4978960;28;46827;-75
2022/06/21 07:14:55;;;;;;;;;16.00;16.00;;;;;21.42;52.23;100763.06;5020635;27;45487;-74
2022/06/21 07:17:36;;;;;;;;;17.33;17.33;;;;;21.26;52.24;100743.31;4995014;27;45485;-74
2022/06/21 07:20:03;;;;;;;;;19.67;18.67;;;;;21.31;52.03;100779.50;4989971;27;45496;-76
2022/06/21 07:22:36;;;;;;;;;17.00;17.00;;;;;21.11;52.89;100779.44;4987464;28;45334;-75
2022/06/21 07:25:34;;;;;;;;;18.67;18.67;;;;;21.01;52.84;100767.44;4984451;27;45377;-74
2022/06/21 07:28:13;;;;;;;;;16.33;15.00;;;;;21.01;53.10;100784.28;4970677;27;45520;-75
2022/06/21 07:30:43;;;;;;;;;17.00;16.00;;;;;20.98;53.53;100775.56;4968985;28;45533;-76
2022/06/21 07:33:16;;;;;;;;;13.00;13.00;;;;;21.01;53.68;100765.66;4984340;27;46384;-78
2022/06/21 07:35:56;;;;;;;;;14.00;14.00;;;;;21.34;52.88;100789.16;4993739;27;45599;-74
2022/06/21 07:38:50;;;;;;;;;17.33;16.67;;;;;21.43;52.69;100799.47;4980620;28;45502;-78
2022/06/21 07:41:41;;;;;;;;;16.00;16.00;;;;;21.53;52.53;100795.47;4980201;27;45875;-78
2022/06/21 07:44:26;;;;;;;;;19.67;17.33;;;;;21.30;52.87;100748.44;4975558;28;45796;-76
2022/06/21 07:46:59;;;;;;;;;13.67;13.67;;;;;21.75;52.30;100789.22;4974967;27;45372;-75
2022/06/21 07:49:37;;;;;;;;;15.00;13.67;;;;;21.89;52.03;100761.94;4972227;28;45469;-77
2022/06/21 07:52:10;;;;;;;;;12.33;12.33;;;;;21.77;51.47;100702.03;4975661;27;45537;-78
2022/06/21 07:54:47;;;;;;;;;17.00;14.67;;;;;21.76;51.09;100679.84;4981454;27;46288;-78
2022/06/21 07:57:31;;;;;;;;;18.00;18.00;;;;;22.35;51.16;100784.78;4975544;27;45377;-73
2022/06/21 08:00:18;;;;;;;;;18.00;17.33;;;;;22.00;51.66;100747.19;4976187;27;45532;-73
2022/06/21 08:08:36;;;;;;;;;17.33;16.00;;;;;21.73;52.19;100727.97;4982740;27;45411;-74
2022/06/21 08:11:17;;;;;;;;;15.67;14.33;;;;;21.89;52.56;100764.63;4984294;27;45413;-74
2022/06/21 08:13:43;;;;;;;;;14.67;12.00;;;;;22.02;52.93;100779.16;4977132;27;45510;-75
2022/06/21 08:16:18;;;;;;;;;19.00;18.00;;;;;21.60;52.86;100709.00;4961561;27;45579;-75
2022/06/21 08:19:06;;;;;;;;;24.33;19.67;;;;;21.76;53.14;100729.66;4993200;27;45618;-74
2022/06/21 08:21:46;;;;;;;;;18.67;18.33;;;;;21.73;53.77;100743.94;4988833;27;45462;-77
2022/06/21 08:24:34;;;;;;;;;17.67;17.67;;;;;21.63;53.37;100721.31;4987961;27;45450;-75
2022/06/21 08:27:34;;;;;;;;;18.33;18.33;;;;;22.11;53.44;100796.50;4981701;28;45540;-78
2022/06/21 08:30:28;;;;;;;;;18.67;16.33;;;;;21.88;53.51;100758.44;4973461;27;46631;-76
2022/06/21 08:33:04;;;;;;;;;17.00;16.33;;;;;22.15;53.18;100769.63;4976587;27;45353;-78
2022/06/21 08:35:38;;;;;;;;;14.67;14.67;;;;;22.43;52.80;100792.41;4977061;27;45950;-75
2022/06/21 08:38:17;;;;;;;;;16.33;14.33;;;;;22.54;52.66;100805.25;4983291;27;46106;-77
2022/06/21 08:48:06;;;;;;;;;17.00;17.00;;;;;22.62;52.88;100803.09;4985950;27;45438;-76
2022/06/21 08:50:53;;;;;;;;;16.33;16.33;;;;;22.71;52.59;100809.78;4975686;27;46358;-77
2022/06/21 08:53:57;;;;;;;;;20.00;20.00;;;;;22.63;52.72;100804.81;4955927;27;45803;-78
2022/06/21 08:56:31;;;;;;;;;20.67;19.00;;;;;22.50;53.10;100782.31;5004702;28;46042;-78
2022/06/21 08:59:01;;;;;;;;;21.33;20.67;;;;;22.63;53.28;100795.00;4992445;27;45326;-74
2022/06/21 09:01:42;;;;;;;;;19.00;18.67;;;;;22.75;52.99;100790.03;4977042;27;46627;-74
2022/06/21 09:04:29;;;;;;;;;23.00;22.67;;;;;22.96;52.63;100790.78;4976270;27;44880;-75
2022/06/21 09:07:32;;;;;;;;;20.00;19.67;;;;;23.23;52.20;100784.13;4973705;27;45726;-73
2022/06/21 09:10:19;;;;;;;;;22.33;21.33;;;;;23.32;51.96;100782.78;4985109;27;46087;-75
2022/06/21 09:13:00;;;;;;;;;25.67;22.67;;;;;23.36;51.96;100783.50;4974527;28;45530;-76
2022/06/21 09:15:30;;;;;;;;;23.33;23.33;;;;;23.58;51.39;100786.81;4990832;28;45428;-76
2022/06/21 09:18:07;;;;;;;;;19.00;19.00;;;;;23.80;51.09;100785.72;4979689;27;45443;-74
2022/06/21 09:21:07;;;;;;;;;16.00;16.00;;;;;24.01;50.53;100781.91;4963893;27;45533;-71
2022/06/21 09:24:18;;;;;;;;;21.33;21.33;;;;;23.90;50.86;100778.97;4986130;27;45407;-74
2022/06/21 09:26:53;;;;;;;;;23.33;21.00;;;;;23.55;51.15;100765.59;5008857;28;45356;-78
2022/06/21 09:29:30;;;;;;;;;24.33;22.33;;;;;23.52;51.55;100770.25;4980690;27;45622;-81
2022/06/21 09:32:05;;;;;;;;;23.67;23.67;;;;;23.46;51.51;100782.94;5022139;27;45268;-76
2022/06/21 09:34:57;;;;;;;;;21.33;21.33;;;;;23.33;51.50;100760.47;4997432;27;45416;-80
2022/06/21 09:37:48;;;;;;;;;23.00;22.00;;;;;23.67;51.10;100783.66;4969984;28;45549;-78
2022/06/21 09:40:27;;;;;;;;;22.00;18.33;;;;;23.82;51.26;100776.66;4975317;28;45361;-76
2022/06/21 09:43:19;;;;;;;;;22.33;21.67;;;;;23.91;50.87;100770.84;4964980;27;46923;-75
2022/06/21 09:46:08;;;;;;;;;28.33;26.67;;;;;23.81;51.12;100774.09;4985734;27;45520;-71
2022/06/21 09:49:11;;;;;;;;;23.00;22.00;;;;;23.50;51.71;100739.09;4974765;27;45473;-71
2022/06/21 09:52:01;;;;;;;;;20.50;20.00;;;;;23.74;51.98;100768.19;4973068;27;45358;-71
2022/06/21 09:54:39;;;;;;;;;18.67;17.67;;;;;23.88;51.81;100759.44;4973313;27;45364;-74
2022/06/21 09:57:07;;;;;;;;;21.00;20.67;;;;;24.02;51.87;100756.03;4974262;27;46946;-71
2022/06/21 10:00:03;;;;;;;;;20.67;20.67;;;;;24.10;51.39;100753.81;4966382;28;45730;-72
2022/06/21 10:02:34;;;;;;;;;16.00;16.00;;;;;24.18;51.17;100754.28;4999653;28;45534;-71
2022/06/21 10:05:00;;;;;;;;;19.67;18.33;;;;;;;;5000041;27;44778;-71
2022/06/21 10:07:47;;;;;;;;;9.67;9.67;;;;;24.36;50.52;100747.03;4994027;27;46101;-70
2022/06/21 10:10:41;;;;;;;;;21.67;21.67;;;;;24.40;50.63;100747.72;4991597;27;45375;-69
2022/06/21 10:13:10;;;;;;;;;23.00;21.00;;;;;24.22;50.56;100737.06;4995227;28;45378;-70
2022/06/21 10:15:50;;;;;;;;;20.00;18.00;;;;;24.14;51.08;100739.31;5006931;27;44841;-70
2022/06/21 10:18:46;;;;;;;;;17.67;17.67;;;;;24.13;51.56;100721.50;5019230;27;46160;-71
2022/06/21 10:21:30;;;;;;;;;18.33;18.33;;;;;24.18;50.99;100706.09;4981688;27;45542;-71
2022/06/21 10:24:15;;;;;;;;;19.67;18.33;;;;;24.35;50.92;100726.56;4988317;27;45643;-73
2022/06/21 10:26:47;;;;;;;;;17.67;17.67;;;;;24.36;50.91;100720.25;5005388;27;45506;-71
2022/06/21 10:29:12;;;;;;;;;20.33;19.33;;;;;24.45;50.52;100718.88;5009093;27;46572;-72
2022/06/21 10:32:23;;;;;;;;;19.33;17.67;;;;;24.57;50.72;100712.00;5004579;27;45555;-70
2022/06/21 10:35:01;;;;;;;;;20.67;17.33;;;;;24.72;50.41;100706.63;5016455;27;45639;-78
2022/06/21 10:37:48;;;;;;;;;23.00;19.67;;;;;24.64;50.12;100689.28;5018022;27;44915;-73
2022/06/21 10:40:28;;;;;;;;;23.67;23.00;;;;;24.82;49.79;100706.09;4992336;27;46524;-72
2022/06/21 10:43:18;;;;;;;;;16.33;16.33;;;;;24.81;50.07;100701.69;4988273;27;45750;-72
2022/06/21 10:46:06;;;;;;;;;18.00;17.33;;;;;24.92;49.67;100696.59;5007472;27;45369;-71
2022/06/21 10:48:53;;;;;;;;;17.67;15.67;;;;;25.06;49.43;100698.47;4993060;27;45341;-74
2022/06/21 10:51:45;;;;;;;;;19.33;16.00;;;;;25.12;48.83;100690.03;4992502;27;46967;-75
2022/06/21 10:54:25;;;;;;;;;15.67;14.67;;;;;25.26;48.50;100686.56;4985041;27;45749;-73
2022/06/21 10:57:48;;;;;;;;;17.67;17.00;;;;;25.42;48.26;100681.16;4988531;27;45468;-70
2022/06/21 11:03:34;;;;;;;;;17.00;16.33;;;;;25.54;48.02;100675.03;5040885;28;45490;-73
2022/06/21 11:06:15;;;;;;;;;17.33;15.00;;;;;25.48;47.92;100643.22;5033637;27;45443;-74
2022/06/21 11:08:56;;;;;;;;;13.00;13.00;;;;;25.82;47.46;100679.53;5004737;27;45365;-74
2022/06/21 11:11:40;;;;;;;;;19.33;19.33;;;;;25.30;46.91;100564.81;4992293;27;45225;-78
2022/06/21 11:14:34;;;;;;;;;17.00;16.33;;;;;25.96;47.35;100673.31;5030709;27;45488;-75
2022/06/21 11:17:22;;;;;;;;;16.33;16.00;;;;;26.04;46.90;100673.72;5051107;27;45415;-74
2022/06/21 11:20:03;;;;;;;;;20.67;20.67;;;;;25.65;46.77;100589.41;5013027;27;45545;-75
2022/06/21 11:22:34;;;;;;;;;19.67;18.00;;;;;26.23;46.41;100678.75;5019083;27;45377;-76
2022/06/21 11:25:14;;;;;;;;;17.00;17.00;;;;;25.78;46.22;100587.66;5052689;27;45323;-73
2022/06/21 11:28:24;;;;;;;;;17.00;17.00;;;;;26.12;46.01;100649.91;5092350;27;45542;-76
2022/06/21 11:30:55;;;;;;;;;18.00;16.67;;;;;25.88;46.11;100612.09;5010812;28;45390;-73
2022/06/21 11:33:23;;;;;;;;;19.00;19.00;;;;;26.24;45.80;100667.06;4994883;27;45508;-75
2022/06/21 11:36:05;;;;;;;;;19.00;17.00;;;;;25.91;45.88;100598.50;4994086;27;46056;-73
2022/06/21 11:38:36;;;;;;;;;15.00;15.00;;;;;26.13;46.04;100632.00;5004297;27;45758;-72
2022/06/21 11:44:21;;;;;;;;;18.67;18.33;;;;;26.30;45.53;100626.38;5015901;27;45365;-74
2022/06/21 11:47:06;;;;;;;;;16.33;15.67;;;;;25.79;45.54;100533.06;4997753;27;46585;-72
2022/06/21 11:49:48;;;;;;;;;19.33;18.33;;;;;26.60;45.42;100658.47;5011500;27;45675;-73
2022/06/21 11:52:25;;;;;;;;;17.00;17.00;;;;;26.61;45.59;100662.84;5001367;27;45794;-73
2022/06/21 11:55:10;;;;;;;;;14.67;14.67;;;;;26.75;45.15;100661.09;4991451;27;45916;-71
2022/06/21 11:57:49;;;;;;;;;16.33;15.33;;;;;26.75;45.18;100643.13;4994358;27;45917;-73
2022/06/21 12:00:34;;;;;;;;;21.33;20.33;;;;;26.78;44.28;100629.47;4988945;27;45540;-74
2022/06/21 12:03:04;;;;;;;;;15.50;15.50;;;;;26.85;45.23;100635.31;5018321;27;45597;-76
2022/06/21 12:05:37;;;;;;;;;13.67;13.67;;;;;27.11;44.87;100651.50;5026572;27;45391;-73
2022/06/21 12:08:28;;;;;;;;;19.67;17.00;;;;;27.13;44.57;100636.97;5006125;27;45846;-73
2022/06/21 12:11:15;;;;;;;;;17.00;15.33;;;;;27.26;44.24;100651.34;4981983;27;45531;-74
2022/06/21 12:13:56;;;;;;;;;19.00;18.00;;;;;27.39;44.17;100659.41;4985984;27;45553;-73
2022/06/21 12:16:40;;;;;;;;;16.33;16.33;;;;;27.50;43.68;100650.56;4991711;27;45992;-76
2022/06/21 12:19:10;;;;;;;;;13.67;13.67;;;;;27.53;44.24;100628.00;4977789;27;46651;-75
2022/06/21 12:21:50;;;;;;;;;16.00;16.00;;;;;27.70;43.49;100635.72;4982834;27;45687;-76
2022/06/21 12:24:20;;;;;;;;;19.67;15.67;;;;;27.83;43.07;100631.19;4989390;27;45567;-72
2022/06/21 12:26:47;;;;;;;;;18.00;16.00;;;;;27.81;42.37;100616.09;4986894;27;45659;-71